createdAt,value
2023-04-06T00:00:18.207Z,45.95
2023-04-06T00:01:38.791Z,45.97
2023-04-06T00:02:59.255Z,41.67
2023-04-06T00:04:19.936Z,43.97
2023-04-06T00:05:40.608Z,45.65
2023-04-06T00:07:01.272Z,45.25
2023-04-06T00:08:21.786Z,44.05
2023-04-06T00:09:43.865Z,35.92
2023-04-06T00:11:04.790Z,38.83
2023-04-06T00:12:25.446Z,36.03
2023-04-06T00:13:46.173Z,43.50
2023-04-06T00:15:07.820Z,40.58
2023-04-06T00:16:30.467Z,41.28
2023-04-06T00:17:51.453Z,39.42
2023-04-06T00:19:12.003Z,38.40
2023-04-06T00:20:32.561Z,34.67
2023-04-06T00:21:53.224Z,36.72
2023-04-06T00:23:14.077Z,34.47
2023-04-06T00:24:34.816Z,39.50
2023-04-06T00:25:56.905Z,31.75
2023-04-06T00:27:17.295Z,32.90
2023-04-06T00:28:38.098Z,40.80
2023-04-06T00:29:58.491Z,33.78
2023-04-06T00:31:19.198Z,43.78
2023-04-06T00:32:39.895Z,38.27
2023-04-06T00:34:00.539Z,40.83
2023-04-06T00:35:21.787Z,35.30
2023-04-06T00:36:42.250Z,39.53
2023-04-06T00:38:02.894Z,32.65
2023-04-06T00:39:23.577Z,37.33
2023-04-06T00:40:44.898Z,39.63
2023-04-06T00:42:10.976Z,37.00
2023-04-06T00:43:32.006Z,33.13
2023-04-06T00:44:53.788Z,32.05
2023-04-06T00:46:14.707Z,29.52
2023-04-06T00:47:35.326Z,33.00
2023-04-06T00:48:56.033Z,29.05
2023-04-06T00:50:16.705Z,32.40
2023-04-06T00:51:37.657Z,32.58
2023-04-06T00:52:59.058Z,35.40
2023-04-06T00:54:19.807Z,34.30
2023-04-06T00:55:40.362Z,34.40
2023-04-06T00:57:01.003Z,27.65
2023-04-06T00:58:23.000Z,34.30
2023-04-06T00:59:43.919Z,30.98
2023-04-06T01:01:07.774Z,32.88
2023-04-06T01:02:28.748Z,31.10
2023-04-06T01:03:49.827Z,27.67
2023-04-06T01:05:10.585Z,31.48
2023-04-06T01:06:31.459Z,31.92
2023-04-06T01:07:51.859Z,28.50
2023-04-06T01:09:12.765Z,31.08
2023-04-06T01:10:33.170Z,30.85
2023-04-06T01:11:53.605Z,31.85
2023-04-06T01:13:14.281Z,31.35
2023-04-06T01:14:36.223Z,35.97
2023-04-06T01:15:57.077Z,39.00
2023-04-06T01:17:17.929Z,31.40
2023-04-06T01:18:38.808Z,28.67
2023-04-06T01:19:59.226Z,28.48
2023-04-06T01:21:20.049Z,27.60
2023-04-06T01:22:42.067Z,31.90
2023-04-06T01:24:02.349Z,29.02
2023-04-06T01:25:22.989Z,26.73
2023-04-06T01:26:43.914Z,30.38
2023-04-06T01:29:25.001Z,28.27
2023-04-06T01:30:45.765Z,31.63
2023-04-06T01:32:06.417Z,28.53
2023-04-06T01:33:27.031Z,27.88
2023-04-06T01:34:47.633Z,27.83
2023-04-06T01:36:08.773Z,30.10
2023-04-06T01:37:29.476Z,29.92
2023-04-06T01:38:51.326Z,28.65
2023-04-06T01:40:12.367Z,32.38
2023-04-06T01:41:32.651Z,28.85
2023-04-06T01:42:53.102Z,29.45
2023-04-06T01:44:13.990Z,28.35
2023-04-06T01:45:34.653Z,33.30
2023-04-06T01:46:55.637Z,32.55
2023-04-06T01:48:16.232Z,28.73
2023-04-06T01:49:36.917Z,35.70
2023-04-06T01:50:57.514Z,27.75
2023-04-06T01:52:19.218Z,26.97
2023-04-06T01:53:40.051Z,31.98
2023-04-06T01:55:02.118Z,27.83
2023-04-06T01:56:22.916Z,31.40
2023-04-06T01:57:43.662Z,30.48
2023-04-06T01:59:04.396Z,27.77
2023-04-06T02:00:27.239Z,30.10
2023-04-06T02:01:47.740Z,34.55
2023-04-06T02:03:08.343Z,32.10
2023-04-06T02:04:29.400Z,32.75
2023-04-06T02:05:50.134Z,33.15
2023-04-06T02:07:10.917Z,29.77
2023-04-06T02:08:31.787Z,29.83
2023-04-06T02:09:55.677Z,33.60
2023-04-06T02:11:17.742Z,33.40
2023-04-06T02:12:38.577Z,33.42
2023-04-06T02:13:59.411Z,32.58
2023-04-06T02:15:20.000Z,34.43
2023-04-06T02:16:40.509Z,34.40
2023-04-06T02:18:01.177Z,37.07
2023-04-06T02:19:21.768Z,34.72
2023-04-06T02:20:42.305Z,33.53
2023-04-06T02:22:02.912Z,33.47
2023-04-06T02:23:23.751Z,37.75
2023-04-06T02:24:44.256Z,30.30
2023-04-06T02:26:05.008Z,31.33
2023-04-06T02:27:27.121Z,33.53
2023-04-06T02:28:47.804Z,37.00
2023-04-06T02:30:09.359Z,32.88
2023-04-06T02:31:29.777Z,32.72
2023-04-06T02:32:50.201Z,33.30
2023-04-06T02:34:10.683Z,31.88
2023-04-06T02:35:32.256Z,37.85
2023-04-06T02:36:53.140Z,30.83
2023-04-06T02:38:13.844Z,35.20
2023-04-06T02:39:34.395Z,36.40
2023-04-06T02:40:55.216Z,39.83
2023-04-06T02:42:16.056Z,40.60
2023-04-06T02:43:38.227Z,32.45
2023-04-06T02:44:58.596Z,49.42
2023-04-06T02:46:19.048Z,33.67
2023-04-06T02:47:39.738Z,37.30
2023-04-06T02:49:00.832Z,34.78
2023-04-06T02:50:21.541Z,37.63
2023-04-06T02:51:42.210Z,42.05
2023-04-06T02:53:02.989Z,33.03
2023-04-06T02:54:23.758Z,36.90
2023-04-06T02:55:44.342Z,39.97
2023-04-06T02:57:04.939Z,41.57
2023-04-06T02:58:25.814Z,38.08
2023-04-06T02:59:47.962Z,40.72
2023-04-06T03:01:08.551Z,40.00
2023-04-06T03:02:29.511Z,41.88
2023-04-06T03:03:50.266Z,35.78
2023-04-06T03:05:10.948Z,33.53
2023-04-06T03:06:31.710Z,37.65
2023-04-06T03:07:52.376Z,37.63
2023-04-06T03:09:13.515Z,40.45
2023-04-06T03:10:34.115Z,35.30
2023-04-06T03:11:54.841Z,43.15
2023-04-06T03:13:15.658Z,36.25
2023-04-06T03:14:36.203Z,36.42
2023-04-06T03:15:58.569Z,38.30
2023-04-06T03:17:19.183Z,45.40
2023-04-06T03:18:39.720Z,38.25
2023-04-06T03:20:00.398Z,37.90
2023-04-06T03:21:21.108Z,39.15
2023-04-06T03:22:41.832Z,40.05
2023-04-06T03:24:02.496Z,38.00
2023-04-06T03:25:23.464Z,34.67
2023-04-06T03:26:44.056Z,40.20
2023-04-06T03:28:04.883Z,40.97
2023-04-06T03:29:25.543Z,42.13
2023-04-06T03:30:46.623Z,42.63
2023-04-06T03:32:09.944Z,38.53
2023-04-06T03:33:31.464Z,38.30
2023-04-06T03:34:52.167Z,38.15
2023-04-06T03:36:12.847Z,39.97
2023-04-06T03:37:33.811Z,38.17
2023-04-06T03:38:54.538Z,39.22
2023-04-06T03:40:15.306Z,38.85
2023-04-06T03:41:36.061Z,40.55
2023-04-06T03:42:56.778Z,40.53
2023-04-06T03:44:17.449Z,38.90
2023-04-06T03:45:38.065Z,39.40
2023-04-06T03:46:58.873Z,43.92
2023-04-06T03:48:20.863Z,41.88
2023-04-06T03:49:41.361Z,39.85
2023-04-06T03:51:02.092Z,42.30
2023-04-06T03:52:22.721Z,42.78
2023-04-06T03:53:43.322Z,42.03
2023-04-06T03:55:04.555Z,42.70
2023-04-06T03:56:24.868Z,50.00
2023-04-06T03:57:45.537Z,36.22
2023-04-06T03:59:06.445Z,41.05
2023-04-06T04:00:27.804Z,40.42
2023-04-06T04:01:48.664Z,41.97
2023-04-06T04:03:09.450Z,43.42
2023-04-06T04:04:31.779Z,39.45
2023-04-06T04:05:52.910Z,45.40
2023-04-06T04:07:13.846Z,39.33
2023-04-06T04:08:34.607Z,41.58
2023-04-06T04:09:55.366Z,45.53
2023-04-06T04:11:16.182Z,42.77
2023-04-06T04:12:36.869Z,40.67
2023-04-06T04:13:57.791Z,45.42
2023-04-06T04:15:18.436Z,39.38
2023-04-06T04:16:39.194Z,39.15
2023-04-06T04:17:59.810Z,37.42
2023-04-06T04:19:20.375Z,43.65
2023-04-06T04:20:42.421Z,43.87
2023-04-06T04:22:02.920Z,39.83
2023-04-06T04:23:23.785Z,39.97
2023-04-06T04:24:44.302Z,44.53
2023-04-06T04:26:05.121Z,46.63
2023-04-06T04:27:25.823Z,40.47
2023-04-06T04:28:46.447Z,44.33
2023-04-06T04:30:08.310Z,44.65
2023-04-06T04:31:28.932Z,48.95
2023-04-06T04:32:49.850Z,42.83
2023-04-06T04:34:10.618Z,44.20
2023-04-06T04:35:30.970Z,54.67
2023-04-06T04:36:53.681Z,49.38
2023-04-06T04:38:14.140Z,47.88
2023-04-06T04:39:34.841Z,50.77
2023-04-06T04:40:55.472Z,47.23
2023-04-06T04:42:15.986Z,52.20
2023-04-06T04:43:36.646Z,47.80
2023-04-06T04:44:57.187Z,47.50
2023-04-06T04:46:18.018Z,49.92
2023-04-06T04:47:38.869Z,43.47
2023-04-06T04:48:59.424Z,46.23
2023-04-06T04:50:19.939Z,52.17
2023-04-06T04:51:40.624Z,47.53
2023-04-06T04:53:02.603Z,51.50
2023-04-06T04:54:25.309Z,53.22
2023-04-06T04:55:46.197Z,53.50
2023-04-06T04:57:06.806Z,54.20
2023-04-06T04:58:27.501Z,50.15
2023-04-06T04:59:47.971Z,57.28
2023-04-06T05:01:09.068Z,51.60
2023-04-06T05:02:29.687Z,51.28
2023-04-06T05:03:50.428Z,50.63
2023-04-06T05:05:11.458Z,52.67
2023-04-06T05:06:32.321Z,55.03
2023-04-06T05:07:53.085Z,49.40
2023-04-06T05:09:15.691Z,50.47
2023-04-06T05:10:36.096Z,51.58
2023-04-06T05:11:57.294Z,57.72
2023-04-06T05:13:18.048Z,54.53
2023-04-06T05:14:38.604Z,53.95
2023-04-06T05:15:59.435Z,53.20
2023-04-06T05:17:20.165Z,57.15
2023-04-06T05:18:40.821Z,53.95
2023-04-06T05:20:01.396Z,57.83
2023-04-06T05:21:21.981Z,52.15
2023-04-06T05:22:42.649Z,57.13
2023-04-06T05:24:03.292Z,55.45
2023-04-06T05:25:25.566Z,54.63
2023-04-06T05:26:46.278Z,52.85
2023-04-06T05:28:07.226Z,63.10
2023-04-06T05:29:27.847Z,60.15
2023-04-06T05:30:48.570Z,62.80
2023-04-06T05:32:09.148Z,63.23
2023-04-06T05:33:29.819Z,65.75
2023-04-06T05:34:50.620Z,56.03
2023-04-06T05:36:13.075Z,65.35
2023-04-06T05:37:35.282Z,62.22
2023-04-06T05:38:55.981Z,58.83
2023-04-06T05:40:16.774Z,65.50
2023-04-06T05:41:38.617Z,65.90
2023-04-06T05:42:59.566Z,70.40
2023-04-06T05:44:20.299Z,67.88
2023-04-06T05:45:40.772Z,61.00
2023-04-06T05:47:01.619Z,66.13
2023-04-06T05:48:21.957Z,69.75
2023-04-06T05:49:43.042Z,65.60
2023-04-06T05:51:03.546Z,68.65
2023-04-06T05:52:27.243Z,64.00
2023-04-06T05:53:47.707Z,69.15
2023-04-06T05:55:10.579Z,67.47
2023-04-06T05:56:30.991Z,69.13
2023-04-06T05:57:55.540Z,67.70
2023-04-06T05:59:16.327Z,84.50
2023-04-06T06:00:37.075Z,75.60
2023-04-06T06:01:57.882Z,70.82
2023-04-06T06:03:19.895Z,70.63
2023-04-06T06:04:40.645Z,77.13
2023-04-06T06:06:01.570Z,72.50
2023-04-06T06:07:21.878Z,72.60
2023-04-06T06:08:42.405Z,74.63
2023-04-06T06:10:03.150Z,79.97
2023-04-06T06:11:23.868Z,73.93
2023-04-06T06:12:44.663Z,76.90
2023-04-06T06:14:06.654Z,75.45
2023-04-06T06:15:27.448Z,72.35
2023-04-06T06:16:47.880Z,70.90
2023-04-06T06:18:08.569Z,70.50
2023-04-06T06:19:29.313Z,65.57
2023-04-06T06:20:49.925Z,70.25
2023-04-06T06:22:10.555Z,72.13
2023-04-06T06:23:31.124Z,76.57
2023-04-06T06:24:51.925Z,66.47
2023-04-06T06:26:12.686Z,76.22
2023-04-06T06:27:33.559Z,69.15
2023-04-06T06:28:54.579Z,66.18
2023-04-06T06:30:17.269Z,71.47
2023-04-06T06:31:37.882Z,64.95
2023-04-06T06:32:58.518Z,61.47
2023-04-06T06:34:19.241Z,77.13
2023-04-06T06:35:40.050Z,69.13
2023-04-06T06:37:00.893Z,65.75
2023-04-06T06:38:23.613Z,68.93
2023-04-06T06:39:44.933Z,71.60
2023-04-06T06:41:05.385Z,66.35
2023-04-06T06:42:26.106Z,62.55
2023-04-06T06:43:46.895Z,71.03
2023-04-06T06:45:09.117Z,70.65
2023-04-06T06:46:30.945Z,64.65
2023-04-06T06:47:54.381Z,66.22
2023-04-06T06:49:15.682Z,62.67
2023-04-06T06:50:36.544Z,63.17
2023-04-06T06:51:57.194Z,70.10
2023-04-06T06:53:17.886Z,73.83
2023-04-06T06:54:38.605Z,56.37
2023-04-06T06:55:59.260Z,62.53
2023-04-06T06:57:19.987Z,63.25
2023-04-06T06:58:40.696Z,62.58
2023-04-06T07:00:01.392Z,63.40
2023-04-06T07:01:22.214Z,59.80
2023-04-06T07:02:44.407Z,64.75
2023-04-06T07:04:05.390Z,58.55
2023-04-06T07:05:28.106Z,66.93
2023-04-06T07:06:50.171Z,67.20
2023-04-06T07:08:11.073Z,66.05
2023-04-06T07:09:31.865Z,66.25
2023-04-06T07:10:53.766Z,68.30
2023-04-06T07:12:14.427Z,77.45
2023-04-06T07:13:35.124Z,60.73
2023-04-06T07:14:56.043Z,58.07
2023-04-06T07:16:16.500Z,61.03
2023-04-06T07:17:37.214Z,70.35
2023-04-06T07:18:59.349Z,65.47
2023-04-06T07:20:20.140Z,63.17
2023-04-06T07:21:40.859Z,67.82
2023-04-06T07:23:01.673Z,65.65
2023-04-06T07:24:22.342Z,56.15
2023-04-06T07:25:43.102Z,61.03
2023-04-06T07:27:04.012Z,56.50
2023-04-06T07:28:27.291Z,55.72
2023-04-06T07:29:47.754Z,55.50
2023-04-06T07:31:08.499Z,50.13
2023-04-06T07:32:29.146Z,54.47
2023-04-06T07:33:49.768Z,52.47
2023-04-06T07:35:11.951Z,51.95
2023-04-06T07:36:32.631Z,51.30
2023-04-06T07:37:53.687Z,64.28
2023-04-06T07:39:14.146Z,52.30
2023-04-06T07:40:35.053Z,61.95
2023-04-06T07:41:55.741Z,48.57
2023-04-06T07:43:16.928Z,58.60
2023-04-06T07:44:37.737Z,51.17
2023-04-06T07:45:58.367Z,53.05
2023-04-06T07:47:19.153Z,53.92
2023-04-06T07:48:39.759Z,52.17
2023-04-06T07:50:00.461Z,55.20
2023-04-06T07:51:22.605Z,47.70
2023-04-06T07:52:43.594Z,52.25
2023-04-06T07:54:04.317Z,51.92
2023-04-06T07:55:27.800Z,53.00
2023-04-06T07:56:48.049Z,52.10
2023-04-06T07:58:09.007Z,50.75
2023-04-06T07:59:30.258Z,57.97
2023-04-06T08:00:50.786Z,63.95
2023-04-06T08:02:11.517Z,54.28
2023-04-06T08:03:34.982Z,58.95
2023-04-06T08:04:56.135Z,56.35
2023-04-06T08:06:16.945Z,59.30
2023-04-06T08:07:39.094Z,62.70
2023-04-06T08:08:59.576Z,58.20
2023-04-06T08:10:20.268Z,68.87
2023-04-06T08:11:40.864Z,66.40
2023-04-06T08:13:01.645Z,65.03
2023-04-06T08:14:22.263Z,60.42
2023-04-06T08:15:42.924Z,70.03
2023-04-06T08:17:04.095Z,73.68
2023-04-06T08:18:26.651Z,62.47
2023-04-06T08:19:47.595Z,60.40
2023-04-06T08:21:07.908Z,63.13
2023-04-06T08:22:28.738Z,68.13
2023-04-06T08:23:51.280Z,65.13
2023-04-06T08:25:12.202Z,65.32
2023-04-06T08:26:33.210Z,64.97
2023-04-06T08:27:53.939Z,67.32
2023-04-06T08:29:14.829Z,64.40
2023-04-06T08:30:35.505Z,68.85
2023-04-06T08:31:56.168Z,66.55
2023-04-06T08:33:16.821Z,72.32
2023-04-06T08:34:37.621Z,74.55
2023-04-06T08:35:58.444Z,69.03
2023-04-06T08:37:19.131Z,67.75
2023-04-06T08:38:40.419Z,64.90
2023-04-06T08:40:02.396Z,70.75
2023-04-06T08:41:23.043Z,68.88
2023-04-06T08:42:48.466Z,64.30
2023-04-06T08:44:09.128Z,58.05
2023-04-06T08:46:50.639Z,61.90
2023-04-06T08:48:13.223Z,59.70
2023-04-06T08:49:35.036Z,63.63
2023-04-06T08:50:56.048Z,58.40
2023-04-06T08:52:19.267Z,60.83
2023-04-06T08:53:40.517Z,57.63
2023-04-06T08:55:02.699Z,60.42
2023-04-06T08:56:23.941Z,64.97
2023-04-06T08:57:44.345Z,53.05
2023-04-06T08:59:05.145Z,61.30
2023-04-06T09:00:27.228Z,61.25
2023-04-06T09:01:48.215Z,61.47
2023-04-06T09:03:09.409Z,62.58
2023-04-06T09:04:30.215Z,56.28
2023-04-06T09:05:51.539Z,54.78
2023-04-06T09:07:11.925Z,55.33
2023-04-06T09:08:33.141Z,53.90
2023-04-06T09:09:53.662Z,52.47
2023-04-06T09:11:16.259Z,52.37
2023-04-06T09:12:36.810Z,48.22
2023-04-06T09:13:57.478Z,42.50
2023-04-06T09:15:24.746Z,46.28
2023-04-06T09:16:46.908Z,38.55
2023-04-06T09:18:07.907Z,40.38
2023-04-06T09:19:28.382Z,38.90
2023-04-06T09:20:58.460Z,35.53
2023-04-06T09:22:19.688Z,39.63
2023-04-06T09:23:40.726Z,45.03
2023-04-06T09:25:01.219Z,36.38
2023-04-06T09:26:25.922Z,39.33
2023-04-06T09:27:46.669Z,35.15
2023-04-06T09:29:07.610Z,38.95
2023-04-06T09:30:28.150Z,39.03
2023-04-06T09:31:48.728Z,31.17
2023-04-06T09:33:09.222Z,37.40
2023-04-06T09:34:29.839Z,36.38
2023-04-06T09:35:51.064Z,33.80
2023-04-06T09:38:35.575Z,32.80
2023-04-06T09:40:03.796Z,37.00
2023-04-06T09:41:27.325Z,41.22
2023-04-06T09:42:48.915Z,39.85
2023-04-06T09:44:11.082Z,35.65
2023-04-06T09:45:31.922Z,37.50
2023-04-06T09:47:00.884Z,40.17
2023-04-06T09:48:22.623Z,38.65
2023-04-06T09:49:43.502Z,45.58
2023-04-06T09:51:07.035Z,38.55
2023-04-06T09:52:31.691Z,33.95
2023-04-06T09:53:53.817Z,34.78
2023-04-06T09:55:18.840Z,37.67
2023-04-06T09:56:47.289Z,40.22
2023-04-06T09:58:11.069Z,34.40
2023-04-06T09:59:39.205Z,35.22
2023-04-06T10:01:04.173Z,41.35
2023-04-06T10:02:33.442Z,36.22
2023-04-06T10:04:01.338Z,35.25
2023-04-06T10:05:27.047Z,38.17
2023-04-06T10:06:48.305Z,34.30
2023-04-06T10:08:10.844Z,38.75
2023-04-06T10:09:31.880Z,33.03
2023-04-06T10:10:52.209Z,41.88
2023-04-06T10:12:14.394Z,32.83
2023-04-06T10:13:34.949Z,31.15
2023-04-06T10:14:55.731Z,34.28
2023-04-06T10:16:17.300Z,36.45
2023-04-06T10:17:37.852Z,32.92
2023-04-06T10:19:01.354Z,35.20
2023-04-06T10:20:25.476Z,36.17
2023-04-06T10:21:49.585Z,32.72
2023-04-06T10:23:12.204Z,36.80
2023-04-06T10:24:32.605Z,35.00
2023-04-06T10:25:54.212Z,33.60
2023-04-06T10:27:16.318Z,34.88
2023-04-06T10:28:37.345Z,37.13
2023-04-06T10:30:02.620Z,33.33
2023-04-06T10:31:26.558Z,36.17
2023-04-06T10:32:48.202Z,31.20
2023-04-06T10:34:09.469Z,32.47
2023-04-06T10:35:38.162Z,35.83
2023-04-06T10:36:58.962Z,32.80
2023-04-06T10:38:20.895Z,38.78
2023-04-06T10:42:39.416Z,36.83
2023-04-06T10:44:00.722Z,37.80
2023-04-06T10:45:25.063Z,36.70
2023-04-06T10:46:53.843Z,39.05
2023-04-06T10:48:14.930Z,37.55
2023-04-06T10:49:35.669Z,37.58
2023-04-06T10:50:56.659Z,40.65
2023-04-06T10:52:17.268Z,36.17
2023-04-06T10:53:38.225Z,36.58
2023-04-06T10:54:59.327Z,40.08
2023-04-06T10:56:23.171Z,39.97
2023-04-06T10:57:47.531Z,39.92
2023-04-06T10:59:08.261Z,42.78
2023-04-06T11:00:36.343Z,36.28
2023-04-06T11:02:04.046Z,41.97
2023-04-06T11:03:24.976Z,35.95
2023-04-06T11:04:55.333Z,32.20
2023-04-06T11:06:22.783Z,33.78
2023-04-06T11:07:45.699Z,38.03
2023-04-06T11:09:06.242Z,36.65
2023-04-06T11:10:27.112Z,35.00
2023-04-06T11:11:54.549Z,35.70
2023-04-06T11:13:16.710Z,34.88
2023-04-06T11:14:37.178Z,37.53
2023-04-06T11:15:57.829Z,42.47
2023-04-06T11:17:18.313Z,37.75
2023-04-06T11:18:39.284Z,35.53
2023-04-06T11:20:00.876Z,32.42
2023-04-06T11:21:35.282Z,34.13
2023-04-06T11:22:56.416Z,39.65
2023-04-06T11:24:18.371Z,35.33
2023-04-06T11:26:59.659Z,37.17
2023-04-06T11:28:22.228Z,38.15
2023-04-06T11:29:43.463Z,37.15
2023-04-06T11:31:04.077Z,37.53
2023-04-06T11:32:24.901Z,39.65
2023-04-06T11:33:45.466Z,37.38
2023-04-06T11:35:07.004Z,40.47
2023-04-06T11:36:28.710Z,40.13
2023-04-06T11:37:49.865Z,38.30
2023-04-06T11:39:10.663Z,37.17
2023-04-06T11:40:31.437Z,36.90
2023-04-06T11:41:52.843Z,35.85
2023-04-06T11:43:13.394Z,30.85
2023-04-06T11:44:36.444Z,38.63
2023-04-06T11:46:03.650Z,36.53
2023-04-06T11:47:29.108Z,39.00
2023-04-06T11:48:50.034Z,35.38
2023-04-06T11:50:13.864Z,41.10
2023-04-06T11:51:37.287Z,32.30
2023-04-06T11:53:01.648Z,31.67
2023-04-06T11:54:31.526Z,33.90
2023-04-06T11:55:52.178Z,34.10
2023-04-06T11:57:13.120Z,34.95
2023-04-06T11:58:33.998Z,34.80
2023-04-06T11:59:56.463Z,33.90
2023-04-06T12:01:17.160Z,31.63
2023-04-06T12:02:37.804Z,32.88
2023-04-06T12:03:58.552Z,35.63
2023-04-06T12:05:19.444Z,31.87
2023-04-06T12:06:40.206Z,35.78
2023-04-06T12:08:02.751Z,35.43
2023-04-06T12:09:24.450Z,37.97
2023-04-06T12:10:45.337Z,33.42
2023-04-06T12:12:05.890Z,30.33
2023-04-06T12:13:26.419Z,32.35
2023-04-06T12:14:47.086Z,31.37
2023-04-06T12:16:09.007Z,32.83
2023-04-06T12:17:29.266Z,31.50
2023-04-06T12:18:50.098Z,32.13
2023-04-06T12:20:22.554Z,36.67
2023-04-06T12:21:46.465Z,39.05
2023-04-06T12:23:07.191Z,39.05
2023-04-06T12:24:28.704Z,28.00
2023-04-06T12:25:49.842Z,34.85
2023-04-06T12:27:11.065Z,34.47
2023-04-06T12:28:31.611Z,34.42
2023-04-06T12:29:52.056Z,33.28
2023-04-06T12:31:17.238Z,32.45
2023-04-06T12:32:37.968Z,33.42
2023-04-06T12:33:58.610Z,34.70
2023-04-06T12:35:19.510Z,32.08
2023-04-06T12:36:42.790Z,37.63
2023-04-06T12:38:03.330Z,31.80
2023-04-06T12:39:24.408Z,34.60
2023-04-06T12:40:45.138Z,42.58
2023-04-06T12:42:06.049Z,33.97
2023-04-06T12:43:26.815Z,39.45
2023-04-06T12:44:47.498Z,34.33
2023-04-06T12:46:08.303Z,30.25
2023-04-06T12:47:30.506Z,34.70
2023-04-06T12:48:52.341Z,32.22
2023-04-06T12:50:13.292Z,35.45
2023-04-06T12:51:33.756Z,36.60
2023-04-06T12:52:54.574Z,37.60
2023-04-06T12:54:15.934Z,32.65
2023-04-06T12:55:36.271Z,36.75
2023-04-06T12:56:57.041Z,43.42
2023-04-06T12:58:17.698Z,33.47
2023-04-06T12:59:38.578Z,34.47
2023-04-06T13:00:59.263Z,42.10
2023-04-06T13:02:19.777Z,33.20
2023-04-06T13:03:42.184Z,31.63
2023-04-06T13:05:02.641Z,36.47
2023-04-06T13:06:23.093Z,36.95
2023-04-06T13:07:43.665Z,33.30
2023-04-06T13:09:04.296Z,31.50
2023-04-06T13:10:28.205Z,37.13
2023-04-06T13:11:49.000Z,30.67
2023-04-06T13:13:09.625Z,34.80
2023-04-06T13:14:30.344Z,28.23
2023-04-06T13:15:51.258Z,33.75
2023-04-06T13:17:11.798Z,35.60
2023-04-06T13:18:32.644Z,33.53
2023-04-06T13:19:57.284Z,33.97
2023-04-06T13:21:18.032Z,35.25
2023-04-06T13:22:39.041Z,28.58
2023-04-06T13:23:59.529Z,27.80
2023-04-06T13:25:20.379Z,27.05
2023-04-06T13:26:40.800Z,25.05
2023-04-06T13:28:01.344Z,26.25
2023-04-06T13:29:24.736Z,30.77
2023-04-06T13:30:49.304Z,26.23
2023-04-06T13:32:10.053Z,28.08
2023-04-06T13:33:31.766Z,29.65
2023-04-06T13:34:55.621Z,32.42
2023-04-06T13:36:17.939Z,31.67
2023-04-06T13:37:39.458Z,28.67
2023-04-06T13:39:00.393Z,31.00
2023-04-06T13:40:21.023Z,36.03
2023-04-06T13:41:41.859Z,39.75
2023-04-06T13:43:02.379Z,36.63
2023-04-06T13:44:22.771Z,37.17
2023-04-06T13:45:50.166Z,30.63
2023-04-06T13:47:11.143Z,37.85
2023-04-06T13:48:31.818Z,36.63
2023-04-06T13:49:53.781Z,33.95
2023-04-06T13:51:15.054Z,39.75
2023-04-06T13:53:56.521Z,40.45
2023-04-06T13:55:16.865Z,46.08
2023-04-06T13:56:37.336Z,40.30
2023-04-06T13:57:58.251Z,40.78
2023-04-06T13:59:18.951Z,32.15
2023-04-06T14:00:39.678Z,37.15
2023-04-06T14:02:00.664Z,38.88
2023-04-06T14:03:22.059Z,36.15
2023-04-06T14:04:42.400Z,38.67
2023-04-06T14:07:35.858Z,41.38
2023-04-06T14:08:56.401Z,31.35
2023-04-06T14:10:17.457Z,33.97
2023-04-06T14:11:38.104Z,33.05
2023-04-06T14:12:58.580Z,37.75
2023-04-06T14:14:19.326Z,36.25
2023-04-06T14:15:40.196Z,37.08
2023-04-06T14:17:00.683Z,38.05
2023-04-06T14:18:21.481Z,36.00
2023-04-06T14:19:42.322Z,37.58
2023-04-06T14:21:04.674Z,38.87
2023-04-06T14:22:25.328Z,31.92
2023-04-06T14:23:46.265Z,35.38
2023-04-06T14:25:08.330Z,31.13
2023-04-06T14:26:28.472Z,37.92
2023-04-06T14:27:49.049Z,32.53
2023-04-06T14:29:09.966Z,29.48
2023-04-06T14:30:31.231Z,35.25
2023-04-06T14:31:51.990Z,38.08
2023-04-06T14:33:12.962Z,37.05
2023-04-06T14:34:33.741Z,38.88
2023-04-06T14:35:56.507Z,36.17
2023-04-06T14:37:18.132Z,34.53
2023-04-06T14:38:38.818Z,36.38
2023-04-06T14:39:59.403Z,36.63
2023-04-06T14:41:23.432Z,35.97
2023-04-06T14:42:43.835Z,35.72
2023-04-06T14:44:04.357Z,42.30
2023-04-06T14:45:27.716Z,41.58
2023-04-06T14:46:48.280Z,32.65
2023-04-06T14:48:09.050Z,33.67
2023-04-06T14:49:29.763Z,35.93
2023-04-06T14:50:53.963Z,32.45
2023-04-06T14:52:14.794Z,33.35
2023-04-06T14:53:36.728Z,35.92
2023-04-06T14:54:57.043Z,31.25
2023-04-06T14:56:20.937Z,39.55
2023-04-06T14:57:41.342Z,38.10
2023-04-06T14:59:02.191Z,34.20
2023-04-06T15:00:22.644Z,39.45
2023-04-06T15:01:43.454Z,38.72
2023-04-06T15:03:04.170Z,35.10
2023-04-06T15:04:27.344Z,37.10
2023-04-06T15:05:48.039Z,33.88
2023-04-06T15:07:08.724Z,34.08
2023-04-06T15:08:29.403Z,40.27
2023-04-06T15:09:51.275Z,36.90
2023-04-06T15:11:12.221Z,42.75
2023-04-06T15:12:32.877Z,34.40
2023-04-06T15:13:53.491Z,28.90
2023-04-06T15:15:14.230Z,35.80
2023-04-06T15:16:34.836Z,41.00
2023-04-06T15:17:55.219Z,30.17
2023-04-06T15:19:15.575Z,38.72
2023-04-06T15:20:36.326Z,36.83
2023-04-06T15:21:58.142Z,34.60
2023-04-06T15:23:19.828Z,29.88
2023-04-06T15:24:40.366Z,30.73
2023-04-06T15:26:02.448Z,31.27
2023-04-06T15:27:22.873Z,24.60
2023-04-06T15:28:43.497Z,34.40
2023-04-06T15:30:04.573Z,35.83
2023-04-06T15:31:36.818Z,40.38
2023-04-06T15:33:00.420Z,40.45
2023-04-06T15:34:21.433Z,39.28
2023-04-06T15:35:41.896Z,39.97
2023-04-06T15:37:02.538Z,43.27
2023-04-06T15:38:23.360Z,37.13
2023-04-06T15:39:43.911Z,42.80
2023-04-06T15:41:05.734Z,33.95
2023-04-06T15:42:26.489Z,35.05
2023-04-06T15:43:47.336Z,41.37
2023-04-06T15:45:08.651Z,33.35
2023-04-06T15:46:29.374Z,36.75
2023-04-06T15:47:49.857Z,32.97
2023-04-06T15:49:10.346Z,39.15
2023-04-06T15:50:30.627Z,31.85
2023-04-06T15:51:51.932Z,36.10
2023-04-06T15:53:12.266Z,52.53
2023-04-06T15:54:33.121Z,44.15
2023-04-06T15:55:58.902Z,43.17
2023-04-06T15:57:21.046Z,40.58
2023-04-06T15:58:42.193Z,40.80
2023-04-06T16:00:03.677Z,34.42
2023-04-06T16:01:24.016Z,49.60
2023-04-06T16:02:45.044Z,36.28
2023-04-06T16:04:07.302Z,47.60
2023-04-06T16:05:31.123Z,47.08
2023-04-06T16:06:53.763Z,43.83
2023-04-06T16:08:15.097Z,43.40
2023-04-06T16:09:35.485Z,48.03
2023-04-06T16:10:56.036Z,36.47
2023-04-06T16:12:16.890Z,45.22
2023-04-06T16:13:39.586Z,50.63
2023-04-06T16:15:00.563Z,49.67
2023-04-06T16:16:21.321Z,47.45
2023-04-06T16:17:42.165Z,45.30
2023-04-06T16:19:02.521Z,40.67
2023-04-06T16:20:23.606Z,48.92
2023-04-06T16:21:44.199Z,47.53
2023-04-06T16:23:05.156Z,52.47
2023-04-06T16:24:25.753Z,49.97
2023-04-06T16:25:46.419Z,49.13
2023-04-06T16:27:06.811Z,44.13
2023-04-06T16:28:27.314Z,50.42
2023-04-06T16:29:49.019Z,51.20
2023-04-06T16:31:18.011Z,57.80
2023-04-06T16:32:38.484Z,46.88
2023-04-06T16:33:59.059Z,56.00
2023-04-06T16:35:20.039Z,52.30
2023-04-06T16:36:41.032Z,52.35
2023-04-06T16:38:01.453Z,52.25
2023-04-06T16:39:22.121Z,54.35
2023-04-06T16:40:42.560Z,59.92
2023-04-06T16:42:03.222Z,64.85
2023-04-06T16:43:23.948Z,72.38
2023-04-06T16:44:44.641Z,56.65
2023-04-06T16:46:06.909Z,73.03
2023-04-06T16:47:27.766Z,57.95
2023-04-06T16:48:48.438Z,61.80
2023-04-06T16:50:10.320Z,62.88
2023-04-06T16:51:31.066Z,54.63
2023-04-06T16:52:51.846Z,72.18
2023-04-06T16:54:12.255Z,56.97
2023-04-06T16:55:32.723Z,58.90
2023-04-06T16:56:53.400Z,52.67
2023-04-06T16:58:13.973Z,56.45
2023-04-06T16:59:35.233Z,56.92
2023-04-06T17:00:55.541Z,63.58
2023-04-06T17:02:17.639Z,57.63
2023-04-06T17:03:38.189Z,67.13
2023-04-06T17:05:00.465Z,60.63
2023-04-06T17:06:21.068Z,70.95
2023-04-06T17:07:41.661Z,89.28
2023-04-06T17:09:02.431Z,71.68
2023-04-06T17:10:32.856Z,93.43
2023-04-06T17:11:54.654Z,84.30
2023-04-06T17:13:15.063Z,67.20
2023-04-06T17:14:35.922Z,77.95
2023-04-06T17:15:56.257Z,71.32
2023-04-06T17:17:18.238Z,97.50
2023-04-06T17:18:39.834Z,74.32
2023-04-06T17:20:00.381Z,64.80
2023-04-06T17:21:21.011Z,72.05
2023-04-06T17:22:41.861Z,74.65
2023-04-06T17:24:02.332Z,96.87
2023-04-06T17:25:23.118Z,70.35
2023-04-06T17:26:43.625Z,70.75
2023-04-06T17:28:04.102Z,80.05
2023-04-06T17:29:24.296Z,68.25
2023-04-06T17:30:45.177Z,63.10
2023-04-06T17:32:05.978Z,71.95
2023-04-06T17:33:28.410Z,86.37
2023-04-06T17:34:48.971Z,88.28
2023-04-06T17:36:09.772Z,70.33
2023-04-06T17:37:31.572Z,70.25
2023-04-06T17:38:52.286Z,81.28